createdAt,value
2018-01-25T00:03:30.001Z,97.8
2018-01-25T00:08:29.931Z,97.6
2018-01-25T00:13:29.955Z,98.2
2018-01-25T00:18:29.990Z,97.5
2018-01-25T00:23:29.816Z,97.2
2018-01-25T00:28:29.947Z,97.2
2018-01-25T00:33:30.078Z,97.6
2018-01-25T00:38:30.017Z,97.2
2018-01-25T00:43:29.815Z,96.7
2018-01-25T00:48:29.973Z,95.9
2018-01-25T00:53:29.986Z,96.6
2018-01-25T00:58:29.854Z,95.9
2018-01-25T01:03:29.945Z,97.1
2018-01-25T01:08:29.862Z,97
2018-01-25T01:13:30.026Z,97.3
2018-01-25T01:18:29.830Z,98.2
2018-01-25T01:23:30.077Z,98.3
2018-01-25T01:28:29.846Z,98.6
2018-01-25T01:33:29.857Z,98.3
2018-01-25T01:38:29.990Z,98
2018-01-25T01:43:29.859Z,98.2
2018-01-25T01:48:29.942Z,98.5
2018-01-25T01:53:29.860Z,98.6
2018-01-25T01:58:29.865Z,98.6
2018-01-25T02:03:29.885Z,99.3
2018-01-25T02:08:30.151Z,99.2
2018-01-25T02:13:29.854Z,98.6
2018-01-25T02:18:29.883Z,98.5
2018-01-25T02:23:29.893Z,99
2018-01-25T02:28:29.985Z,98.3
2018-01-25T02:33:29.894Z,99.2
2018-01-25T02:38:29.893Z,98.6
2018-01-25T02:43:30.067Z,98.4
2018-01-25T02:48:29.877Z,99.5
2018-01-25T02:53:29.892Z,99.3
2018-01-25T02:58:30.045Z,99.1
2018-01-25T03:03:30.062Z,99.4
2018-01-25T03:08:29.906Z,99.9
2018-01-25T03:13:29.918Z,99.7
2018-01-25T03:18:29.922Z,100
2018-01-25T03:23:29.896Z,100
2018-01-25T03:28:29.916Z,100
2018-01-25T03:33:29.922Z,100
2018-01-25T03:38:39.913Z,100
2018-01-25T03:43:30.119Z,100
2018-01-25T03:48:29.947Z,100
2018-01-25T03:53:29.911Z,100
2018-01-25T03:58:30.211Z,100
2018-01-25T04:03:30.126Z,100
2018-01-25T04:08:29.966Z,100
2018-01-25T04:13:30.081Z,100
2018-01-25T04:18:30.115Z,100
2018-01-25T04:23:30.145Z,100
2018-01-25T04:28:30.004Z,100
2018-01-25T04:33:29.943Z,100
2018-01-25T04:38:29.931Z,100
2018-01-25T04:43:30.186Z,100
2018-01-25T04:48:29.935Z,100
2018-01-25T04:53:29.957Z,100
2018-01-25T04:58:29.943Z,100
2018-01-25T05:03:29.962Z,100
2018-01-25T05:08:30.072Z,100
2018-01-25T05:13:29.943Z,100
2018-01-25T05:18:29.939Z,100
2018-01-25T05:23:30.061Z,100
2018-01-25T05:28:30.091Z,100
2018-01-25T05:33:30.182Z,100
2018-01-25T05:38:29.950Z,100
2018-01-25T05:43:30.120Z,100
2018-01-25T05:48:29.977Z,100
2018-01-25T05:53:30.199Z,100
2018-01-25T05:58:30.107Z,100
2018-01-25T06:03:30.119Z,100
2018-01-25T06:08:29.985Z,100
2018-01-25T06:13:29.996Z,100
2018-01-25T06:18:29.989Z,100
2018-01-25T06:23:30.159Z,100
2018-01-25T06:28:30.187Z,100
2018-01-25T06:33:30.006Z,100
2018-01-25T06:38:30.157Z,100
2018-01-25T06:43:29.988Z,100
2018-01-25T06:48:30.095Z,100
2018-01-25T06:53:30.075Z,100
2018-01-25T06:58:30.074Z,100
2018-01-25T07:03:30.029Z,100
2018-01-25T07:08:30.117Z,100
2018-01-25T07:13:30.190Z,100
2018-01-25T07:18:30.197Z,100
2018-01-25T07:23:30.021Z,100
2018-01-25T07:28:30.262Z,100
2018-01-25T07:33:39.985Z,100
2018-01-25T07:38:30.030Z,100
2018-01-25T07:43:30.246Z,100
2018-01-25T07:48:30.151Z,100
2018-01-25T07:53:30.109Z,100
2018-01-25T07:58:30.227Z,100
2018-01-25T08:03:30.137Z,100
2018-01-25T08:08:30.033Z,100
2018-01-25T08:13:30.211Z,100
2018-01-25T08:18:30.134Z,100
2018-01-25T08:23:30.171Z,100
2018-01-25T08:28:30.065Z,100
2018-01-25T08:33:30.252Z,100
2018-01-25T08:38:30.153Z,100
2018-01-25T08:43:30.188Z,100
2018-01-25T08:48:30.226Z,100
2018-01-25T08:53:30.060Z,100
2018-01-25T08:58:30.182Z,100
2018-01-25T09:03:30.051Z,100
2018-01-25T09:08:30.100Z,100
2018-01-25T09:13:30.295Z,100
2018-01-25T09:18:30.190Z,99.8
2018-01-25T09:23:30.106Z,100
2018-01-25T09:28:30.248Z,100
2018-01-25T09:33:30.077Z,99.5
2018-01-25T09:38:30.219Z,99.9
2018-01-25T09:43:30.249Z,99.8
2018-01-25T09:48:30.277Z,99.9
2018-01-25T09:53:30.210Z,99.5
2018-01-25T09:58:30.232Z,100
2018-01-25T10:03:30.259Z,100
2018-01-25T10:08:30.197Z,100
2018-01-25T10:13:30.216Z,100
2018-01-25T10:18:30.115Z,100
2018-01-25T10:23:30.314Z,100
2018-01-25T10:28:30.113Z,100
2018-01-25T10:33:40.121Z,100
2018-01-25T10:38:30.282Z,100
2018-01-25T10:43:30.143Z,99.7
2018-01-25T10:48:30.342Z,98.9
2018-01-25T10:53:30.212Z,98.6
2018-01-25T10:58:30.335Z,98.1
2018-01-25T11:03:30.324Z,98.7
2018-01-25T11:08:30.240Z,99
2018-01-25T11:13:30.284Z,99
2018-01-25T11:18:30.352Z,99.3
2018-01-25T11:23:30.252Z,99
2018-01-25T11:28:30.262Z,99.3
2018-01-25T11:33:40.131Z,99
2018-01-25T11:38:30.326Z,99.2
2018-01-25T11:43:30.473Z,99.2
2018-01-25T11:48:30.384Z,99
2018-01-25T11:53:30.167Z,99.2
2018-01-25T11:58:30.236Z,99.1
2018-01-25T12:03:30.290Z,99.1
2018-01-25T12:08:30.316Z,99.4
2018-01-25T12:13:30.395Z,99.8
2018-01-25T12:18:30.205Z,99.7
2018-01-25T12:23:30.308Z,99.9
2018-01-25T12:28:30.291Z,99.7
2018-01-25T12:33:30.188Z,99
2018-01-25T12:38:30.217Z,99.3
2018-01-25T12:43:30.360Z,99.3
2018-01-25T12:48:30.338Z,98.9
2018-01-25T12:53:30.200Z,98.5
2018-01-25T12:58:30.310Z,99
2018-01-25T13:03:30.331Z,99.2
2018-01-25T13:08:30.197Z,99.2
2018-01-25T13:13:30.415Z,99.4
2018-01-25T13:18:30.327Z,100
2018-01-25T13:23:30.368Z,100
2018-01-25T13:28:30.292Z,100
2018-01-25T13:33:30.307Z,100
2018-01-25T13:38:30.236Z,99.4
2018-01-25T13:43:30.232Z,99.4
2018-01-25T13:48:30.534Z,99.6
2018-01-25T13:53:30.328Z,99.7
2018-01-25T13:58:30.395Z,99.6
2018-01-25T14:05:05.013Z,100
2018-01-25T14:08:31.240Z,100
2018-01-25T14:13:30.505Z,99.8
2018-01-25T14:18:30.492Z,100
2018-01-25T14:23:30.341Z,100
2018-01-25T14:28:30.369Z,100
2018-01-25T14:33:30.504Z,99.9
2018-01-25T14:38:30.535Z,99.5
2018-01-25T14:43:31.092Z,100
2018-01-25T14:48:32.222Z,100
2018-01-25T14:53:30.988Z,100
2018-01-25T14:58:31.060Z,100
2018-01-25T15:03:31.085Z,100
2018-01-25T15:08:30.997Z,100
2018-01-25T15:13:31.144Z,100
2018-01-25T15:18:31.065Z,100
2018-01-25T15:23:31.080Z,100
2018-01-25T15:28:31.121Z,100
2018-01-25T15:33:31.084Z,100
2018-01-25T15:38:31.029Z,100
2018-01-25T15:43:35.726Z,100
2018-01-25T15:48:40.420Z,100
2018-01-25T15:53:40.718Z,100
2018-01-25T15:58:37.788Z,100
2018-01-25T16:03:42.534Z,100
2018-01-25T16:08:31.567Z,99.9
2018-01-25T16:13:31.071Z,100
2018-01-25T16:18:31.051Z,100
2018-01-25T16:23:41.374Z,100
2018-01-25T16:28:31.366Z,100
2018-01-25T16:33:40.893Z,100
2018-01-25T16:38:40.638Z,100
2018-01-25T16:43:43.021Z,100
2018-01-25T16:48:42.042Z,100
2018-01-25T16:53:39.442Z,100
2018-01-25T16:58:38.328Z,100
2018-01-25T17:03:39.242Z,100
2018-01-25T17:08:39.372Z,100
2018-01-25T17:13:39.434Z,100
2018-01-25T17:18:39.532Z,99.6
2018-01-25T17:23:32.664Z,99.5
2018-01-25T17:28:31.111Z,98.7
2018-01-25T17:33:31.116Z,99
2018-01-25T17:38:31.215Z,98.7
2018-01-25T17:43:31.165Z,99.2
2018-01-25T17:48:31.117Z,98.8
2018-01-25T17:53:35.903Z,98.8
2018-01-25T17:58:32.481Z,98.9
2018-01-25T18:03:33.811Z,99
2018-01-25T18:08:45.809Z,98.6
2018-01-25T18:13:49.263Z,98.9
2018-01-25T18:18:45.171Z,98.6
2018-01-25T18:23:42.305Z,98.1
2018-01-25T18:28:43.765Z,98.7
2018-01-25T18:33:33.236Z,98.6
2018-01-25T18:38:34.947Z,98.4
2018-01-25T18:43:31.134Z,98.3
2018-01-25T18:48:31.141Z,98
2018-01-25T18:53:31.125Z,98.3
2018-01-25T18:58:31.196Z,97.9
2018-01-25T19:03:31.188Z,98.2
2018-01-25T19:08:31.188Z,98.1
2018-01-25T19:13:31.241Z,98
2018-01-25T19:18:31.333Z,98.1
2018-01-25T19:23:31.145Z,97.9
2018-01-25T19:28:31.147Z,97.6
2018-01-25T19:33:31.243Z,97.6
2018-01-25T19:38:31.135Z,97.3
2018-01-25T19:43:31.151Z,97.6
2018-01-25T19:48:31.409Z,97.9
2018-01-25T19:53:31.248Z,98.2
2018-01-25T19:58:31.385Z,97.7
2018-01-25T20:03:40.576Z,98.3
2018-01-25T20:08:38.118Z,98.3
2018-01-25T20:13:40.230Z,98.1
2018-01-25T20:18:39.544Z,98
2018-01-25T20:23:31.161Z,97.6
2018-01-25T20:28:31.160Z,98.1
2018-01-25T20:33:31.165Z,98.5
2018-01-25T20:38:39.582Z,98.7
2018-01-25T20:43:31.299Z,98.7
2018-01-25T20:48:31.256Z,99
2018-01-25T20:53:31.957Z,98.9
2018-01-25T20:58:31.202Z,98.3
2018-01-25T21:03:31.360Z,98.8
2018-01-25T21:08:31.211Z,98.7
2018-01-25T21:13:31.327Z,98.5
2018-01-25T21:18:31.429Z,98.3
2018-01-25T21:23:31.242Z,98.7
2018-01-25T21:28:31.266Z,98.6
2018-01-25T21:33:31.221Z,98.8
2018-01-25T21:38:31.635Z,98.6
2018-01-25T21:43:31.749Z,98.7
2018-01-25T21:48:31.299Z,98.7
2018-01-25T21:53:31.370Z,97.9
2018-01-25T21:58:31.337Z,98.9
2018-01-25T22:03:32.477Z,97.8
2018-01-25T22:08:31.251Z,97.8
2018-01-25T22:13:31.318Z,97.8
2018-01-25T22:18:32.599Z,98
2018-01-25T22:23:31.269Z,97.7
2018-01-25T22:28:31.341Z,98.5
2018-01-25T22:33:31.292Z,98
2018-01-25T22:38:31.500Z,98.2
2018-01-25T22:43:31.240Z,97.9
2018-01-25T22:48:31.363Z,98.8
2018-01-25T22:53:31.411Z,97.8
2018-01-25T22:58:31.425Z,98.4
2018-01-25T23:03:31.253Z,98.5
2018-01-25T23:08:31.408Z,98.5
2018-01-25T23:13:31.258Z,98.7
2018-01-25T23:18:31.351Z,98.4
2018-01-25T23:23:31.378Z,98.2
2018-01-25T23:28:31.242Z,98.5
2018-01-25T23:33:31.324Z,98.5
2018-01-25T23:38:31.423Z,97.7
2018-01-25T23:43:31.383Z,98.2
2018-01-25T23:48:31.255Z,98.6
2018-01-25T23:53:31.269Z,98
2018-01-25T23:58:31.351Z,98.4
